Wedmore, United Kingdom
Current Conditions -  °F | °C
As of 4:50 PM on Wednesday 22 Oct 2014 (Local Time) from EGGD Reporting Station
Rain Showers Rain Showers  
Wind Chill: 54°   Ceiling: 2900
Heat Index: 54°   Visibility: 6mi
Dew Point: 48°   Wind: 17mph
Humidity: 82%   Direction: 260°W
Pressure: 30.24"   Gusts: NA
Location:  51.23°N, 2.81°W
Report Text: EGGD 221550Z 26015KT 9999 VCSH SCT018 BKN029 12/09 Q1024
Loading
Personal Weather Stations






























Interactive Weather Map
Tropical Storm Tracking
New forecast layout! Learn more

10-Day Weather Forecast

Advertisements
Track Severe Weather on mobile